createdAt,value
2017-09-21T08:17:02.401Z,410
2017-09-21T08:17:42.822Z,410
2017-09-21T08:18:23.403Z,415
2017-09-21T08:19:04.002Z,410
2017-09-21T08:19:44.584Z,405
2017-09-21T08:20:25.332Z,405
2017-09-21T08:21:05.984Z,405
2017-09-21T08:21:46.570Z,405
2017-09-21T08:22:27.190Z,405
2017-09-21T08:23:07.825Z,405
2017-09-21T08:23:48.450Z,410
2017-09-21T08:24:29.068Z,410
2017-09-21T08:25:09.814Z,410
2017-09-21T08:25:50.558Z,415
2017-09-21T08:26:31.309Z,415
2017-09-21T08:27:12.071Z,425
2017-09-21T08:27:52.684Z,420
2017-09-21T08:28:33.267Z,425
2017-09-21T08:29:13.849Z,425
2017-09-21T08:29:54.599Z,430
2017-09-21T08:30:35.396Z,430
2017-09-21T08:31:16.244Z,430
2017-09-21T08:31:56.796Z,430
2017-09-21T08:32:37.606Z,430
2017-09-21T08:33:18.232Z,430
2017-09-21T08:33:58.890Z,425
2017-09-21T08:34:39.523Z,425
2017-09-21T08:35:20.109Z,425
2017-09-21T08:36:00.760Z,425
2017-09-21T08:36:41.408Z,430
2017-09-21T08:37:22.113Z,430
2017-09-21T08:38:02.876Z,430
2017-09-21T08:38:43.353Z,430
2017-09-21T08:39:24.031Z,430
2017-09-21T08:40:04.765Z,430
2017-09-21T08:40:45.316Z,435
2017-09-21T08:41:26.814Z,435
2017-09-21T08:42:07.362Z,435
2017-09-21T08:42:48.612Z,445
2017-09-21T08:43:29.214Z,440
2017-09-21T08:44:09.869Z,445
2017-09-21T08:44:50.533Z,445
2017-09-21T08:45:31.216Z,445
2017-09-21T08:46:11.840Z,445
2017-09-21T08:46:52.750Z,450
2017-09-21T08:47:33.354Z,455
2017-09-21T08:48:14.200Z,460
2017-09-21T08:48:54.785Z,465
2017-09-21T08:49:35.736Z,470
2017-09-21T08:50:16.346Z,480
2017-09-21T08:50:57.220Z,480
2017-09-21T08:51:37.751Z,480
2017-09-21T08:52:18.342Z,485
2017-09-21T08:52:58.931Z,485
2017-09-21T08:53:39.554Z,490
2017-09-21T08:54:20.086Z,490
2017-09-21T08:55:00.646Z,490
2017-09-21T08:55:41.346Z,490
2017-09-21T08:56:21.914Z,490
2017-09-21T08:57:02.552Z,495
2017-09-21T08:57:43.220Z,495
2017-09-21T08:58:23.841Z,500
2017-09-21T08:59:04.452Z,500
2017-09-21T08:59:45.083Z,505
2017-09-21T09:00:25.663Z,505
2017-09-21T09:01:06.333Z,505
2017-09-21T09:01:46.911Z,505
2017-09-21T09:02:27.475Z,505
2017-09-21T09:03:07.961Z,500
2017-09-21T09:03:48.607Z,500
2017-09-21T09:04:29.245Z,495
2017-09-21T09:05:09.995Z,495
2017-09-21T09:05:50.885Z,495
2017-09-21T09:06:31.624Z,495
2017-09-21T09:07:12.311Z,500
2017-09-21T09:07:53.939Z,505
2017-09-21T09:08:34.624Z,520
2017-09-21T09:09:15.321Z,525
2017-09-21T09:09:55.971Z,525
2017-09-21T09:10:36.654Z,525
2017-09-21T09:11:17.299Z,505
2017-09-21T09:11:57.983Z,490
2017-09-21T09:12:38.678Z,485
2017-09-21T09:13:19.600Z,480
2017-09-21T09:14:00.242Z,490
2017-09-21T09:14:41.886Z,490
2017-09-21T09:15:22.694Z,500
2017-09-21T09:16:03.419Z,500
2017-09-21T09:16:44.391Z,490
2017-09-21T09:17:25.153Z,475
2017-09-21T09:18:05.692Z,470
2017-09-21T09:18:46.719Z,455
2017-09-21T09:19:27.398Z,420
2017-09-21T09:20:08.270Z,410
2017-09-21T09:20:48.932Z,415
2017-09-21T09:21:29.678Z,420
2017-09-21T09:22:10.474Z,430
2017-09-21T09:22:51.179Z,435
2017-09-21T09:23:32.009Z,440
2017-09-21T09:24:14.142Z,445
2017-09-21T09:24:54.856Z,455
2017-09-21T09:25:35.610Z,465
2017-09-21T09:26:16.302Z,475
2017-09-21T09:26:57.068Z,500
2017-09-21T09:27:37.843Z,535
2017-09-21T09:28:18.520Z,565
2017-09-21T09:28:59.262Z,570
2017-09-21T09:29:40.679Z,575
2017-09-21T09:30:21.610Z,570
2017-09-21T09:31:02.604Z,560
2017-09-21T09:31:43.335Z,570
2017-09-21T09:32:24.010Z,600
2017-09-21T09:33:04.802Z,605
2017-09-21T09:33:45.601Z,580
2017-09-21T09:34:26.321Z,555
2017-09-21T09:35:07.031Z,555
2017-09-21T09:35:47.681Z,565
2017-09-21T09:36:28.496Z,570
2017-09-21T09:37:09.224Z,580
2017-09-21T09:37:49.908Z,585
2017-09-21T09:38:30.599Z,575
2017-09-21T09:39:11.312Z,575
2017-09-21T09:39:52.027Z,580
2017-09-21T09:40:32.697Z,575
2017-09-21T09:41:13.327Z,555
2017-09-21T09:41:54.038Z,555
2017-09-21T09:42:34.816Z,565
2017-09-21T09:43:15.541Z,575
2017-09-21T09:43:56.161Z,565
2017-09-21T09:44:36.846Z,555
2017-09-21T09:45:17.595Z,550
2017-09-21T09:45:58.293Z,555
2017-09-21T09:46:38.955Z,550
2017-09-21T09:47:19.714Z,535
2017-09-21T09:48:00.425Z,535
2017-09-21T09:48:41.309Z,525
2017-09-21T09:49:22.088Z,530
2017-09-21T09:50:02.820Z,530
2017-09-21T09:50:43.522Z,525
2017-09-21T09:51:24.232Z,495
2017-09-21T09:52:05.255Z,450
2017-09-21T09:52:46.197Z,410
2017-09-21T09:53:27.270Z,390
2017-09-21T09:54:07.991Z,380
2017-09-21T09:54:49.166Z,375
2017-09-21T09:55:30.020Z,370
2017-09-21T09:56:10.898Z,370
2017-09-21T09:56:51.706Z,370
2017-09-21T09:57:32.265Z,370
2017-09-21T09:58:12.978Z,370
2017-09-21T09:58:53.646Z,370
2017-09-21T09:59:34.262Z,370
2017-09-21T10:00:15.064Z,370
2017-09-21T10:00:56.217Z,370
2017-09-21T10:01:37.211Z,375
2017-09-21T10:02:19.164Z,380
2017-09-21T10:02:59.780Z,385
2017-09-21T10:03:40.624Z,395
2017-09-21T10:04:21.520Z,400
2017-09-21T10:05:02.226Z,410
2017-09-21T10:05:42.922Z,420
2017-09-21T10:06:23.598Z,435
2017-09-21T10:07:04.255Z,450
2017-09-21T10:07:44.948Z,460
2017-09-21T10:08:25.598Z,475
2017-09-21T10:09:06.266Z,495
2017-09-21T10:09:47.075Z,505
2017-09-21T10:10:27.731Z,525
2017-09-21T10:11:08.412Z,545
2017-09-21T10:11:49.083Z,570
2017-09-21T10:12:29.757Z,610
2017-09-21T10:13:10.440Z,655
2017-09-21T10:13:51.116Z,660
2017-09-21T10:14:31.776Z,670
2017-09-21T10:15:12.350Z,670
2017-09-21T10:15:53.096Z,660
2017-09-21T10:16:33.771Z,655
2017-09-21T10:17:14.413Z,670
2017-09-21T10:17:54.943Z,685
2017-09-21T10:18:35.658Z,695
2017-09-21T10:19:16.244Z,690
2017-09-21T10:19:56.920Z,700
2017-09-21T10:20:37.719Z,710
2017-09-21T10:21:18.368Z,705
2017-09-21T10:21:58.803Z,710
2017-09-21T10:22:39.349Z,725
2017-09-21T10:23:19.777Z,740
2017-09-21T10:24:00.257Z,725
2017-09-21T10:24:40.794Z,700
2017-09-21T10:25:21.293Z,700
2017-09-21T10:26:01.696Z,710
2017-09-21T10:28:34.802Z,725
2017-09-21T10:29:15.253Z,735
2017-09-21T10:29:55.717Z,735
2017-09-21T10:30:36.201Z,730
2017-09-21T10:31:16.761Z,730
2017-09-21T10:31:57.222Z,750
2017-09-21T10:32:37.829Z,755
2017-09-21T10:33:18.295Z,740
2017-09-21T10:33:58.748Z,725
2017-09-21T10:36:32.023Z,740
2017-09-21T10:37:12.464Z,730
2017-09-21T10:37:52.987Z,725
2017-09-21T10:38:33.510Z,720
2017-09-21T10:39:14.037Z,725
2017-09-21T10:39:54.473Z,755
2017-09-21T10:40:34.980Z,765
2017-09-21T10:41:15.659Z,760
2017-09-21T10:41:56.273Z,740
2017-09-21T10:42:36.807Z,740
2017-09-21T10:43:17.357Z,750
2017-09-21T10:43:57.943Z,765
2017-09-21T10:44:38.477Z,770
2017-09-21T10:45:18.971Z,740
2017-09-21T10:45:59.467Z,730
2017-09-21T10:46:39.937Z,725
2017-09-21T10:47:20.501Z,725
2017-09-21T10:48:01.000Z,725
2017-09-21T10:48:41.823Z,730
2017-09-21T10:49:22.272Z,740
2017-09-21T10:50:02.728Z,730
2017-09-21T10:50:43.183Z,730
2017-09-21T10:51:23.689Z,735
2017-09-21T10:52:04.213Z,745
2017-09-21T10:54:16.985Z,725
2017-09-21T10:54:57.563Z,730
2017-09-21T10:55:38.074Z,755
2017-09-21T10:56:18.526Z,760
2017-09-21T10:58:46.504Z,730
2017-09-21T10:59:26.986Z,755
2017-09-21T11:00:07.480Z,780
2017-09-21T11:02:40.644Z,715
2017-09-21T11:03:21.188Z,715
2017-09-21T11:04:01.642Z,720
2017-09-21T11:04:42.131Z,730
2017-09-21T11:05:22.626Z,725
2017-09-21T11:06:03.077Z,730
2017-09-21T11:06:43.578Z,735
2017-09-21T11:07:24.040Z,740
2017-09-21T11:09:57.113Z,720
2017-09-21T11:10:37.658Z,730
2017-09-21T11:11:18.268Z,730
2017-09-21T11:11:58.742Z,740
2017-09-21T11:12:39.237Z,745
2017-09-21T11:13:19.705Z,725
2017-09-21T11:14:00.189Z,715
2017-09-21T11:14:40.722Z,710
2017-09-21T11:15:21.235Z,705
2017-09-21T11:16:01.730Z,690
2017-09-21T11:16:42.201Z,690
2017-09-21T11:17:22.674Z,685
2017-09-21T11:18:03.131Z,685
2017-09-21T11:18:43.578Z,700
2017-09-21T11:19:24.023Z,720
2017-09-21T11:20:04.523Z,735
2017-09-21T11:20:44.995Z,745
2017-09-21T11:21:25.407Z,760
2017-09-21T11:22:05.870Z,760
2017-09-21T11:22:46.356Z,745
2017-09-21T11:23:26.885Z,725
2017-09-21T11:24:07.337Z,715
2017-09-21T11:24:47.813Z,710
2017-09-21T11:25:28.376Z,710
2017-09-21T11:26:08.922Z,710
2017-09-21T11:26:49.388Z,700
2017-09-21T11:29:02.194Z,710
2017-09-21T11:29:42.689Z,690
2017-09-21T11:30:23.183Z,670
2017-09-21T11:31:03.709Z,670
2017-09-21T11:31:44.176Z,675
2017-09-21T11:32:24.674Z,660
2017-09-21T11:33:05.177Z,640
2017-09-21T11:33:45.822Z,630
2017-09-21T11:34:26.360Z,630
2017-09-21T11:35:06.878Z,625
2017-09-21T11:35:48.528Z,620
2017-09-21T11:36:29.009Z,615
2017-09-21T11:37:09.516Z,615
2017-09-21T11:37:50.083Z,615
2017-09-21T11:38:30.644Z,610
2017-09-21T11:39:11.081Z,610
2017-09-21T11:39:51.505Z,610
2017-09-21T11:40:31.994Z,610
2017-09-21T11:41:12.555Z,610
2017-09-21T11:43:40.675Z,605
2017-09-21T11:44:21.141Z,610
2017-09-21T11:45:01.581Z,605
2017-09-21T11:45:43.182Z,610
2017-09-21T11:46:25.308Z,600
2017-09-21T11:47:07.619Z,610
2017-09-21T11:49:41.159Z,595
2017-09-21T11:50:21.875Z,595
2017-09-21T11:51:02.326Z,595
2017-09-21T11:51:42.919Z,595
2017-09-21T11:52:23.288Z,590
2017-09-21T11:53:03.813Z,600
2017-09-21T11:53:44.306Z,605
2017-09-21T11:54:24.740Z,620
2017-09-21T11:55:05.276Z,625
2017-09-21T11:55:45.703Z,645
2017-09-21T11:56:26.132Z,660
2017-09-21T11:57:06.620Z,645
2017-09-21T11:57:47.196Z,620
2017-09-21T11:58:27.688Z,645
2017-09-21T11:59:08.206Z,675
2017-09-21T11:59:48.765Z,680
2017-09-21T12:00:29.258Z,680
2017-09-21T12:01:09.782Z,680
2017-09-21T12:01:51.184Z,670
2017-09-21T12:02:31.766Z,660
2017-09-21T12:03:12.331Z,655
2017-09-21T12:03:52.850Z,655
2017-09-21T12:04:33.382Z,660
2017-09-21T12:05:13.947Z,660
2017-09-21T12:05:54.377Z,655
2017-09-21T12:06:34.875Z,655
2017-09-21T12:07:15.372Z,650
2017-09-21T12:07:55.850Z,655
2017-09-21T12:08:36.540Z,655
2017-09-21T12:09:17.026Z,665
2017-09-21T12:09:57.477Z,690
2017-09-21T12:10:38.006Z,700
2017-09-21T12:11:18.503Z,705
2017-09-21T12:11:58.992Z,690
2017-09-21T12:12:39.525Z,690
2017-09-21T12:13:20.021Z,695
2017-09-21T12:14:00.471Z,695
2017-09-21T12:14:40.995Z,705
2017-09-21T12:17:14.421Z,705
2017-09-21T12:17:54.821Z,710
2017-09-21T12:18:35.315Z,710
2017-09-21T12:19:15.843Z,705
2017-09-21T12:19:56.338Z,715
2017-09-21T12:22:24.490Z,710
2017-09-21T12:23:04.994Z,715
2017-09-21T12:23:45.454Z,710
2017-09-21T12:24:25.911Z,725
2017-09-21T12:26:58.971Z,630
2017-09-21T12:27:39.685Z,655
2017-09-21T12:28:20.325Z,715
2017-09-21T12:29:00.860Z,730
2017-09-21T12:29:41.315Z,725
2017-09-21T12:30:21.775Z,705
2017-09-21T12:31:02.371Z,695
2017-09-21T12:33:20.275Z,740
2017-09-21T12:34:00.738Z,725
2017-09-21T12:34:41.257Z,715
2017-09-21T12:35:21.707Z,715
2017-09-21T12:37:49.718Z,720
2017-09-21T12:38:30.142Z,715
2017-09-21T12:39:10.662Z,725
2017-09-21T12:39:51.315Z,745
2017-09-21T12:40:31.791Z,745
2017-09-21T12:41:12.308Z,740
2017-09-21T12:41:52.771Z,725
2017-09-21T12:42:33.420Z,710
2017-09-21T12:43:13.955Z,705
2017-09-21T12:43:54.458Z,710
2017-09-21T12:44:34.955Z,730
2017-09-21T12:45:15.430Z,740
2017-09-21T12:45:55.844Z,735
2017-09-21T12:46:36.316Z,740
2017-09-21T12:47:16.897Z,740
2017-09-21T12:47:57.509Z,715
2017-09-21T12:48:38.098Z,710
2017-09-21T12:49:18.543Z,715
2017-09-21T12:49:58.990Z,735
2017-09-21T12:50:39.454Z,725
2017-09-21T12:51:20.000Z,725
2017-09-21T12:52:01.098Z,725
2017-09-21T12:52:41.566Z,725
2017-09-21T12:53:22.259Z,700
2017-09-21T12:54:02.822Z,710
2017-09-21T12:54:43.411Z,675
2017-09-21T12:55:23.820Z,685
2017-09-21T12:56:04.399Z,690
2017-09-21T12:56:45.424Z,700
2017-09-21T12:57:26.009Z,705
2017-09-21T12:58:06.441Z,660
2017-09-21T12:58:47.154Z,670
2017-09-21T12:59:27.770Z,695
2017-09-21T13:00:08.251Z,715
2017-09-21T13:00:49.015Z,710
2017-09-21T13:03:07.193Z,735
2017-09-21T13:03:47.588Z,730
2017-09-21T13:06:00.402Z,675
2017-09-21T13:06:40.914Z,635
2017-09-21T13:07:21.511Z,660
2017-09-21T13:08:01.851Z,675
2017-09-21T13:10:40.256Z,625
2017-09-21T13:11:20.691Z,645
2017-09-21T13:12:01.181Z,645
2017-09-21T13:12:41.697Z,645
2017-09-21T13:13:22.184Z,640
2017-09-21T13:14:02.744Z,640
2017-09-21T13:14:43.299Z,620
2017-09-21T13:15:23.917Z,630
2017-09-21T13:16:04.569Z,625
2017-09-21T13:16:45.118Z,615
2017-09-21T13:17:25.577Z,615
2017-09-21T13:18:06.060Z,630
2017-09-21T13:18:46.669Z,640
2017-09-21T13:19:27.220Z,620
2017-09-21T13:20:07.763Z,645
2017-09-21T13:20:48.303Z,650
2017-09-21T13:21:28.864Z,660
2017-09-21T13:22:09.326Z,650
2017-09-21T13:22:49.874Z,660
2017-09-21T13:23:30.412Z,650
2017-09-21T13:24:10.941Z,650
2017-09-21T13:24:51.440Z,665
2017-09-21T13:25:31.903Z,645
2017-09-21T13:26:12.446Z,660
2017-09-21T13:26:52.836Z,665
2017-09-21T13:30:43.151Z,680
2017-09-21T13:31:23.638Z,675
2017-09-21T13:32:04.373Z,675
2017-09-21T13:32:44.693Z,665
2017-09-21T13:33:25.202Z,655
2017-09-21T13:34:05.653Z,660
2017-09-21T13:34:46.191Z,645
2017-09-21T13:35:26.827Z,625
2017-09-21T13:36:07.542Z,615
2017-09-21T13:36:48.198Z,605
2017-09-21T13:37:28.834Z,600
2017-09-21T13:38:09.546Z,585
2017-09-21T13:38:50.170Z,580
2017-09-21T13:39:31.067Z,585
2017-09-21T13:40:11.667Z,580
2017-09-21T13:40:52.519Z,585
2017-09-21T13:41:33.157Z,585
2017-09-21T13:42:13.641Z,585
2017-09-21T13:42:54.189Z,590
2017-09-21T13:43:34.652Z,585
2017-09-21T13:44:15.244Z,575
2017-09-21T13:44:55.751Z,575
2017-09-21T13:45:36.274Z,570
2017-09-21T13:46:16.765Z,565
2017-09-21T13:46:57.289Z,565
2017-09-21T13:47:37.756Z,555
2017-09-21T13:48:18.268Z,560
2017-09-21T13:48:58.803Z,570
2017-09-21T13:49:39.281Z,570
2017-09-21T13:50:19.821Z,575
2017-09-21T13:51:00.481Z,580
2017-09-21T13:51:40.863Z,595
2017-09-21T13:52:21.416Z,610
2017-09-21T13:53:01.881Z,605
2017-09-21T13:53:42.390Z,600
2017-09-21T13:54:22.957Z,590
2017-09-21T13:55:03.444Z,585
2017-09-21T13:55:43.910Z,580
2017-09-21T13:56:24.414Z,580
2017-09-21T13:57:04.952Z,580
2017-09-21T13:57:45.420Z,590
2017-09-21T13:58:26.012Z,575
2017-09-21T13:59:06.489Z,580
2017-09-21T13:59:46.992Z,585
2017-09-21T14:00:27.533Z,585
2017-09-21T14:01:08.094Z,590
2017-09-21T14:01:48.600Z,595
2017-09-21T14:02:29.213Z,600
2017-09-21T14:03:09.681Z,590
2017-09-21T14:03:50.235Z,580
2017-09-21T14:04:30.783Z,570
2017-09-21T14:07:08.925Z,535
2017-09-21T14:07:49.345Z,555
2017-09-21T14:08:29.849Z,550
2017-09-21T14:09:10.362Z,555
2017-09-21T14:09:50.791Z,545
2017-09-21T14:10:31.375Z,550
2017-09-21T14:11:11.676Z,535
2017-09-21T14:11:52.190Z,545
2017-09-21T14:14:28.119Z,530
2017-09-21T14:15:08.685Z,530
2017-09-21T14:15:49.240Z,530
2017-09-21T14:16:29.624Z,535
2017-09-21T14:17:10.064Z,530
2017-09-21T14:17:50.565Z,520
2017-09-21T14:18:31.081Z,510
2017-09-21T14:19:11.563Z,515
2017-09-21T14:19:52.028Z,515
2017-09-21T14:20:32.457Z,520
2017-09-21T14:21:12.983Z,515
2017-09-21T14:21:53.435Z,520
2017-09-21T14:22:34.013Z,530
2017-09-21T14:23:14.445Z,520
2017-09-21T14:23:54.958Z,515
2017-09-21T14:24:35.410Z,510
2017-09-21T14:25:15.866Z,505
2017-09-21T14:25:56.377Z,510
2017-09-21T14:26:36.992Z,510
2017-09-21T14:27:17.505Z,510
2017-09-21T14:27:58.020Z,505
2017-09-21T14:28:38.734Z,495
2017-09-21T14:29:19.157Z,485
2017-09-21T14:29:59.599Z,470
2017-09-21T14:30:40.122Z,455
2017-09-21T14:31:20.658Z,445
2017-09-21T14:32:01.115Z,450
2017-09-21T14:32:41.578Z,455
2017-09-21T14:33:22.067Z,450
2017-09-21T14:34:02.630Z,455
2017-09-21T14:34:43.382Z,440
2017-09-21T14:35:23.819Z,435
2017-09-21T14:36:04.326Z,435
2017-09-21T14:36:44.804Z,425
2017-09-21T14:37:25.372Z,425
2017-09-21T14:38:05.851Z,425
2017-09-21T14:38:46.335Z,425
2017-09-21T14:39:26.783Z,420
2017-09-21T14:40:07.246Z,405
2017-09-21T14:40:47.740Z,420
2017-09-21T14:41:28.207Z,425
2017-09-21T14:42:08.740Z,425
2017-09-21T14:42:49.179Z,420
2017-09-21T14:43:29.722Z,425
2017-09-21T14:44:10.149Z,425
2017-09-21T14:44:50.683Z,420
2017-09-21T14:47:18.591Z,425
2017-09-21T14:47:59.051Z,430
2017-09-21T14:50:16.895Z,420
2017-09-21T14:50:57.342Z,420
2017-09-21T14:51:37.881Z,420
2017-09-21T14:52:18.424Z,410
2017-09-21T14:52:58.956Z,405
2017-09-21T14:53:39.425Z,395
2017-09-21T14:54:19.991Z,360
2017-09-21T14:55:00.437Z,375
2017-09-21T14:55:40.904Z,355
2017-09-21T14:56:21.578Z,355
2017-09-21T14:58:34.483Z,330
2017-09-21T14:59:15.033Z,330
2017-09-21T14:59:55.460Z,335
2017-09-21T15:00:35.986Z,335
2017-09-21T15:01:16.562Z,330
2017-09-21T15:01:57.098Z,320
2017-09-21T15:02:37.574Z,315
2017-09-21T15:04:50.321Z,350
2017-09-21T15:05:30.806Z,350
2017-09-21T15:06:11.279Z,350
2017-09-21T15:06:51.819Z,335
2017-09-21T15:09:09.659Z,325
2017-09-21T15:09:50.189Z,330
2017-09-21T15:10:30.667Z,330
2017-09-21T15:11:11.124Z,325
2017-09-21T15:11:51.589Z,325
2017-09-21T15:12:33.009Z,320
2017-09-21T15:13:13.505Z,315
2017-09-21T15:13:53.958Z,310
2017-09-21T15:14:34.498Z,310
2017-09-21T15:15:15.081Z,305
2017-09-21T15:17:53.472Z,300
2017-09-21T15:18:33.932Z,300
2017-09-21T15:19:14.512Z,290
2017-09-21T15:19:54.916Z,295
2017-09-21T15:20:35.495Z,295
2017-09-21T15:21:15.898Z,290
2017-09-21T15:21:56.399Z,280
2017-09-21T15:22:36.917Z,280
2017-09-21T15:23:17.344Z,285
2017-09-21T15:23:57.829Z,280
2017-09-21T15:24:38.362Z,285
2017-09-21T15:25:18.942Z,285
2017-09-21T15:25:59.372Z,285
2017-09-21T15:26:39.794Z,290
2017-09-21T15:28:58.041Z,280
2017-09-21T15:29:38.522Z,280
2017-09-21T15:30:18.995Z,275
2017-09-21T15:30:59.484Z,275
2017-09-21T15:31:40.018Z,270
2017-09-21T15:32:20.481Z,270
2017-09-21T15:33:01.056Z,260
2017-09-21T15:33:41.545Z,255
2017-09-21T15:34:22.127Z,250
2017-09-21T15:35:02.560Z,245
2017-09-21T15:35:43.031Z,235
2017-09-21T15:36:23.651Z,235
2017-09-21T15:37:04.121Z,230
2017-09-21T15:37:44.602Z,215
2017-09-21T15:38:25.075Z,185
2017-09-21T15:39:05.556Z,155
2017-09-21T15:39:46.121Z,150
2017-09-21T15:40:26.645Z,145
2017-09-21T15:41:07.835Z,140
2017-09-21T15:41:48.410Z,140
2017-09-21T15:42:28.855Z,140
2017-09-21T15:43:09.367Z,135
2017-09-21T15:43:49.884Z,140
2017-09-21T15:44:30.456Z,140
2017-09-21T15:45:10.829Z,140
2017-09-21T15:45:51.352Z,135
2017-09-21T15:46:31.828Z,135
2017-09-21T15:47:12.290Z,135
2017-09-21T15:47:52.818Z,135
2017-09-21T15:48:33.530Z,135
2017-09-21T15:51:01.469Z,130
2017-09-21T15:51:41.965Z,130
2017-09-21T15:52:22.363Z,130
2017-09-21T15:53:02.875Z,130
2017-09-21T15:53:43.331Z,125
2017-09-21T15:54:23.774Z,125
2017-09-21T15:55:04.355Z,125
2017-09-21T15:55:44.782Z,125
2017-09-21T15:56:25.279Z,125
2017-09-21T15:57:05.931Z,120
2017-09-21T15:57:46.422Z,120
2017-09-21T15:58:26.895Z,120
2017-09-21T15:59:07.465Z,120
2017-09-21T15:59:47.883Z,120
2017-09-21T16:00:28.430Z,120
2017-09-21T16:03:06.496Z,115
2017-09-21T16:03:46.956Z,115
2017-09-21T16:04:27.442Z,110
2017-09-21T16:05:08.118Z,110
2017-09-21T16:05:48.541Z,110
2017-09-21T16:06:28.985Z,110
2017-09-21T16:07:09.437Z,110
2017-09-21T16:07:49.991Z,110
2017-09-21T16:08:30.451Z,110
2017-09-21T16:09:10.936Z,105
2017-09-21T16:09:51.448Z,105
2017-09-21T16:10:31.875Z,105
2017-09-21T16:11:12.324Z,105
2017-09-21T16:13:51.725Z,100
2017-09-21T16:14:34.721Z,100
2017-09-21T16:15:16.041Z,100
2017-09-21T16:17:44.164Z,95
2017-09-21T16:18:24.614Z,95
2017-09-21T16:19:05.150Z,95
2017-09-21T16:19:45.681Z,90
2017-09-21T16:20:26.142Z,90
2017-09-21T16:21:06.600Z,90
2017-09-21T16:21:47.062Z,90
2017-09-21T16:22:27.551Z,85
2017-09-21T16:23:08.019Z,85
2017-09-21T16:23:48.582Z,85
2017-09-21T16:24:29.068Z,85
2017-09-21T16:27:07.141Z,80
2017-09-21T16:27:47.659Z,75
2017-09-21T16:28:28.126Z,75
2017-09-21T16:29:08.575Z,75
2017-09-21T16:29:49.132Z,75
2017-09-21T16:30:29.588Z,70
2017-09-21T16:31:10.004Z,70
2017-09-21T16:31:50.442Z,70
2017-09-21T16:32:31.012Z,70
2017-09-21T16:33:11.380Z,70
2017-09-21T16:33:51.893Z,65
2017-09-21T16:34:32.333Z,65
2017-09-21T16:35:12.770Z,65
2017-09-21T16:35:53.254Z,65
2017-09-21T16:36:33.703Z,60
2017-09-21T16:37:14.124Z,60
2017-09-21T16:37:54.725Z,60
2017-09-21T16:38:35.334Z,60
2017-09-21T16:39:15.859Z,60
2017-09-21T16:39:56.427Z,55
2017-09-21T16:40:36.844Z,55
2017-09-21T16:41:17.329Z,55
2017-09-21T16:41:57.801Z,55
2017-09-21T16:42:38.362Z,50
2017-09-21T16:43:18.814Z,50
2017-09-21T16:43:59.323Z,50
2017-09-21T16:44:39.767Z,50
2017-09-21T16:45:20.187Z,50
2017-09-21T16:46:00.680Z,45
2017-09-21T16:46:41.133Z,45
2017-09-21T16:47:21.673Z,45
2017-09-21T16:48:02.139Z,45
2017-09-21T16:48:42.577Z,45
2017-09-21T16:49:23.082Z,45
2017-09-21T16:50:03.575Z,40
2017-09-21T16:50:44.926Z,40
2017-09-21T16:51:25.433Z,40
2017-09-21T16:52:05.924Z,40
2017-09-21T16:52:46.360Z,40
2017-09-21T16:53:26.849Z,40
2017-09-21T16:54:07.307Z,35
2017-09-21T16:54:47.744Z,35
2017-09-21T16:55:28.266Z,35
2017-09-21T16:56:08.740Z,35
2017-09-21T16:56:49.264Z,35
2017-09-21T16:57:29.700Z,35
2017-09-21T16:58:10.164Z,30
2017-09-21T16:58:50.638Z,30
2017-09-21T16:59:31.128Z,30
2017-09-21T17:00:11.767Z,30
2017-09-21T17:00:52.191Z,30
2017-09-21T17:01:32.715Z,30
2017-09-21T17:02:13.092Z,25
2017-09-21T17:02:53.731Z,25
2017-09-21T17:03:34.177Z,25
2017-09-21T17:04:14.650Z,25
2017-09-21T17:04:55.110Z,25
2017-09-21T17:05:35.600Z,25
2017-09-21T17:06:16.054Z,20
2017-09-21T17:06:56.490Z,20
2017-09-21T17:07:36.942Z,20
2017-09-21T17:08:17.414Z,20
2017-09-21T17:08:57.938Z,20
2017-09-21T17:11:10.694Z,15
2017-09-21T17:11:51.162Z,15
2017-09-21T17:12:31.654Z,15
2017-09-21T17:13:12.084Z,15
2017-09-21T17:13:52.515Z,15
2017-09-21T17:14:33.017Z,15
2017-09-21T17:15:13.467Z,10
2017-09-21T17:15:53.941Z,10
2017-09-21T17:16:34.491Z,10
2017-09-21T17:17:14.939Z,10
2017-09-21T17:19:48.276Z,5
2017-09-21T17:20:28.759Z,5
2017-09-21T17:21:09.278Z,5
2017-09-21T17:21:50.681Z,5
2017-09-21T17:22:31.107Z,5
2017-09-21T17:23:11.600Z,5
2017-09-21T17:23:52.043Z,5
2017-09-21T17:24:32.469Z,5
2017-09-21T17:25:12.884Z,5
2017-09-21T17:25:53.493Z,5
2017-09-21T17:26:33.926Z,5
2017-09-21T17:27:14.334Z,5
2017-09-21T17:27:54.866Z,0
2017-09-21T17:28:35.369Z,0
2017-09-21T17:29:15.803Z,0
2017-09-21T17:29:56.255Z,0
2017-09-21T17:30:36.717Z,0
2017-09-21T17:31:17.170Z,0
2017-09-21T17:31:57.624Z,0
2017-09-21T17:32:38.100Z,0
2017-09-21T17:33:18.527Z,0
2017-09-21T17:35:36.833Z,0
2017-09-21T17:36:17.135Z,0
2017-09-21T17:36:57.552Z,0
2017-09-21T17:39:25.517Z,0
2017-09-21T17:40:05.945Z,0
2017-09-21T17:40:46.436Z,0
2017-09-21T17:41:26.859Z,0
2017-09-21T17:42:07.408Z,0
2017-09-21T17:42:47.869Z,0
2017-09-21T17:43:28.329Z,0
2017-09-21T17:44:08.780Z,0
2017-09-21T17:44:49.227Z,0
2017-09-21T17:45:29.701Z,0
2017-09-21T17:47:57.648Z,0
2017-09-21T17:48:38.122Z,0
2017-09-21T17:49:18.573Z,0
2017-09-21T17:49:59.034Z,0
2017-09-21T17:50:39.479Z,0
2017-09-21T17:51:19.954Z,0
2017-09-21T17:52:00.402Z,0
2017-09-21T17:52:40.909Z,0
2017-09-21T17:53:21.354Z,0
2017-09-21T17:54:01.880Z,0
2017-09-21T17:54:43.033Z,0
2017-09-21T17:56:55.778Z,0
2017-09-21T17:57:36.252Z,0
2017-09-21T18:00:14.304Z,0
2017-09-21T18:00:54.718Z,0
2017-09-21T18:01:35.161Z,0
2017-09-21T18:02:15.616Z,0
2017-09-21T18:02:56.056Z,0
2017-09-21T18:03:36.652Z,0
2017-09-21T18:06:04.552Z,0
2017-09-21T18:06:45.024Z,0
2017-09-21T18:07:25.533Z,0
2017-09-21T18:08:06.028Z,0
2017-09-21T18:08:46.450Z,0
2017-09-21T18:09:26.915Z,0
2017-09-21T18:10:07.368Z,0
2017-09-21T18:10:47.825Z,0
2017-09-21T18:11:28.287Z,0
2017-09-21T18:12:08.741Z,0
2017-09-21T18:12:49.142Z,0
2017-09-21T18:13:29.772Z,0
2017-09-21T18:15:42.706Z,0
2017-09-21T18:16:23.180Z,0
2017-09-21T18:17:03.663Z,0
2017-09-21T18:17:44.156Z,0
2017-09-21T18:18:24.621Z,0
2017-09-21T18:19:05.101Z,0
2017-09-21T18:19:45.628Z,0
2017-09-21T18:20:26.087Z,0
2017-09-21T18:21:06.532Z,0
2017-09-21T18:21:46.963Z,0
2017-09-21T18:22:27.476Z,0
2017-09-21T18:23:07.931Z,0
2017-09-21T18:23:48.340Z,0
2017-09-21T18:24:28.799Z,0
2017-09-21T18:25:09.236Z,0
2017-09-21T18:25:49.708Z,0
2017-09-21T18:26:30.112Z,0
2017-09-21T18:27:10.586Z,0
2017-09-21T18:27:51.037Z,0
2017-09-21T18:28:31.674Z,0
2017-09-21T18:29:12.190Z,0
2017-09-21T18:29:52.658Z,0
2017-09-21T18:30:33.162Z,0
2017-09-21T18:31:13.624Z,0
2017-09-21T18:31:54.053Z,0
2017-09-21T18:32:34.503Z,0
2017-09-21T18:33:14.980Z,0
2017-09-21T18:33:55.441Z,0
2017-09-21T18:34:35.925Z,0
2017-09-21T18:35:16.386Z,0
2017-09-21T18:35:56.804Z,0
2017-09-21T18:36:37.232Z,0
2017-09-21T18:37:17.729Z,0
2017-09-21T18:37:58.297Z,0
2017-09-21T18:38:38.735Z,0
2017-09-21T18:39:19.186Z,0
2017-09-21T18:39:59.620Z,0
2017-09-21T18:40:40.094Z,0
2017-09-21T18:41:20.561Z,0
2017-09-21T18:42:01.783Z,0
2017-09-21T18:42:42.251Z,0
2017-09-21T18:43:22.695Z,0
2017-09-21T18:44:03.161Z,0
2017-09-21T18:44:43.573Z,0
2017-09-21T18:45:24.083Z,0
2017-09-21T18:46:04.588Z,0
2017-09-21T18:46:45.047Z,0
2017-09-21T18:47:25.493Z,0
2017-09-21T18:48:05.979Z,0
2017-09-21T18:48:46.405Z,0
2017-09-21T18:49:26.848Z,0
2017-09-21T18:50:07.367Z,0
2017-09-21T18:50:47.699Z,0
2017-09-21T18:51:28.201Z,0
2017-09-21T18:52:08.690Z,0
2017-09-21T18:52:49.130Z,0
2017-09-21T18:53:29.598Z,0
2017-09-21T18:54:10.051Z,0
2017-09-21T18:54:50.499Z,0
2017-09-21T18:55:31.026Z,0
2017-09-21T18:56:11.538Z,0
2017-09-21T18:56:51.994Z,0